createdAt,value
2023-12-09T00:01:21.502Z,2.20
2023-12-09T00:03:49.766Z,2.20
2023-12-09T00:06:18.045Z,2.20
2023-12-09T00:08:46.195Z,2.20
2023-12-09T00:11:15.794Z,2.30
2023-12-09T00:13:43.841Z,2.30
2023-12-09T00:16:11.878Z,2.30
2023-12-09T00:18:39.998Z,2.30
2023-12-09T00:21:08.351Z,2.30
2023-12-09T00:23:47.061Z,2.30
2023-12-09T00:26:17.728Z,2.30
2023-12-09T00:28:45.789Z,2.30
2023-12-09T00:31:13.953Z,2.30
2023-12-09T00:33:42.351Z,2.30
2023-12-09T00:36:11.075Z,2.30
2023-12-09T00:38:39.075Z,2.30
2023-12-09T00:41:07.369Z,2.30
2023-12-09T00:43:36.709Z,2.30
2023-12-09T00:46:04.918Z,2.30
2023-12-09T00:48:33.090Z,2.20
2023-12-09T00:51:01.269Z,2.20
2023-12-09T00:53:29.307Z,2.20
2023-12-09T00:55:57.310Z,2.20
2023-12-09T00:58:25.301Z,2.20
2023-12-09T01:00:54.791Z,2.20
2023-12-09T01:03:22.890Z,2.20
2023-12-09T01:05:51.074Z,2.20
2023-12-09T01:08:19.103Z,2.20
2023-12-09T01:10:47.088Z,2.20
2023-12-09T01:13:15.134Z,2.20
2023-12-09T01:15:43.111Z,2.20
2023-12-09T01:18:12.627Z,2.20
2023-12-09T01:20:40.695Z,2.20
2023-12-09T01:23:09.365Z,2.20
2023-12-09T01:25:37.387Z,2.30
2023-12-09T01:28:05.456Z,2.30
2023-12-09T01:30:33.501Z,2.20
2023-12-09T01:33:01.632Z,2.30
2023-12-09T01:35:31.107Z,2.30
2023-12-09T01:37:59.215Z,2.30
2023-12-09T01:40:27.215Z,2.30
2023-12-09T01:42:55.570Z,2.30
2023-12-09T01:45:23.691Z,2.30
2023-12-09T01:47:51.819Z,2.30
2023-12-09T01:50:20.658Z,2.30
2023-12-09T01:52:50.135Z,2.30
2023-12-09T01:55:18.807Z,2.30
2023-12-09T01:57:46.891Z,2.40
2023-12-09T02:00:16.051Z,2.40
2023-12-09T02:02:45.767Z,2.40
2023-12-09T02:05:14.002Z,2.40
2023-12-09T02:07:42.070Z,2.40
2023-12-09T02:10:11.540Z,2.40
2023-12-09T02:12:45.275Z,2.30
2023-12-09T02:15:19.444Z,2.30
2023-12-09T02:17:53.472Z,2.30
2023-12-09T02:20:22.026Z,2.30
2023-12-09T02:22:50.152Z,2.30
2023-12-09T02:25:19.724Z,2.30
2023-12-09T02:27:52.805Z,2.20
2023-12-09T02:30:27.379Z,2.20
2023-12-09T02:32:57.925Z,2.30
2023-12-09T02:35:27.833Z,2.20
2023-12-09T02:37:57.500Z,2.30
2023-12-09T02:40:28.929Z,2.30
2023-12-09T02:42:57.499Z,2.30
2023-12-09T02:45:25.770Z,2.30
2023-12-09T02:47:53.829Z,2.30
2023-12-09T02:50:21.975Z,2.30
2023-12-09T02:52:50.036Z,2.30
2023-12-09T02:55:19.884Z,2.30
2023-12-09T02:57:49.292Z,2.30
2023-12-09T03:00:18.054Z,2.30
2023-12-09T03:02:46.133Z,2.30
2023-12-09T03:05:14.269Z,2.30
2023-12-09T03:07:42.329Z,2.20
2023-12-09T03:10:10.615Z,2.30
2023-12-09T03:12:38.679Z,2.30
2023-12-09T03:15:09.130Z,2.30
2023-12-09T03:17:37.651Z,2.30
2023-12-09T03:20:09.736Z,2.30
2023-12-09T03:22:37.793Z,2.30
2023-12-09T03:25:06.701Z,2.30
2023-12-09T03:27:34.772Z,2.30
2023-12-09T03:30:02.959Z,2.30
2023-12-09T03:32:32.580Z,2.30
2023-12-09T03:35:00.643Z,2.30
2023-12-09T03:37:28.695Z,2.30
2023-12-09T03:39:56.761Z,2.30
2023-12-09T03:42:25.007Z,2.30
2023-12-09T03:44:53.358Z,2.30
2023-12-09T03:47:28.719Z,2.30
2023-12-09T03:49:59.292Z,2.30
2023-12-09T03:52:26.636Z,2.40
2023-12-09T03:54:54.772Z,2.40
2023-12-09T03:57:22.782Z,2.40
2023-12-09T03:59:50.874Z,2.40
2023-12-09T04:02:19.672Z,2.40
2023-12-09T04:04:47.703Z,2.40
2023-12-09T04:07:17.096Z,2.40
2023-12-09T04:09:45.123Z,2.40
2023-12-09T04:12:13.215Z,2.40
2023-12-09T04:14:41.409Z,2.40
2023-12-09T04:17:09.404Z,2.40
2023-12-09T04:19:37.923Z,2.40
2023-12-09T04:22:06.157Z,2.40
2023-12-09T04:24:35.548Z,2.40
2023-12-09T04:27:03.679Z,2.40
2023-12-09T04:29:31.914Z,2.40
2023-12-09T04:32:00.156Z,2.40
2023-12-09T04:34:28.352Z,2.40
2023-12-09T04:36:57.530Z,2.40
2023-12-09T04:39:25.746Z,2.40
2023-12-09T04:41:55.220Z,2.40
2023-12-09T04:44:24.307Z,2.40
2023-12-09T04:46:52.390Z,2.40
2023-12-09T04:49:20.623Z,2.40
2023-12-09T04:51:48.822Z,2.40
2023-12-09T04:54:16.926Z,2.40
2023-12-09T04:56:45.053Z,2.50
2023-12-09T04:59:15.136Z,2.40
2023-12-09T05:01:43.514Z,2.40
2023-12-09T05:04:11.691Z,2.40
2023-12-09T05:06:39.892Z,2.40
2023-12-09T05:09:09.502Z,2.40
2023-12-09T05:11:37.517Z,2.50
2023-12-09T05:14:05.627Z,2.40
2023-12-09T05:16:35.550Z,2.40
2023-12-09T05:19:05.380Z,2.50
2023-12-09T05:21:35.784Z,2.40
2023-12-09T05:24:05.604Z,2.40
2023-12-09T05:26:34.509Z,2.40
2023-12-09T05:29:02.597Z,2.50
2023-12-09T05:31:30.710Z,2.40
2023-12-09T05:34:00.262Z,2.50
2023-12-09T05:36:28.481Z,2.50
2023-12-09T05:38:56.718Z,2.50
2023-12-09T05:41:24.790Z,2.50
2023-12-09T05:43:52.821Z,2.50
2023-12-09T05:46:21.386Z,2.50
2023-12-09T05:48:49.805Z,2.50
2023-12-09T05:51:19.596Z,2.50
2023-12-09T05:53:47.650Z,2.50
2023-12-09T05:56:15.675Z,2.50
2023-12-09T05:58:43.820Z,2.60
2023-12-09T06:01:12.025Z,2.60
2023-12-09T06:03:40.118Z,2.60
2023-12-09T06:06:09.075Z,2.60
2023-12-09T06:08:38.607Z,2.70
2023-12-09T06:11:06.693Z,2.70
2023-12-09T06:13:34.753Z,2.70
2023-12-09T06:16:02.789Z,2.70
2023-12-09T06:18:31.024Z,2.70
2023-12-09T06:20:59.143Z,2.70
2023-12-09T06:23:27.380Z,2.80
2023-12-09T06:25:56.801Z,2.80
2023-12-09T06:28:24.799Z,2.70
2023-12-09T06:30:54.324Z,2.80
2023-12-09T06:33:23.689Z,2.80
2023-12-09T06:35:51.767Z,2.80
2023-12-09T06:38:19.811Z,2.80
2023-12-09T06:40:48.146Z,2.80
2023-12-09T06:43:17.560Z,2.80
2023-12-09T06:45:45.621Z,2.80
2023-12-09T06:48:13.805Z,2.80
2023-12-09T06:50:42.309Z,2.90
2023-12-09T06:53:14.508Z,2.90
2023-12-09T06:55:42.727Z,2.90
2023-12-09T06:58:11.853Z,2.90
2023-12-09T07:00:41.403Z,2.90
2023-12-09T07:03:09.677Z,2.90
2023-12-09T07:05:37.790Z,2.90
2023-12-09T07:08:06.254Z,2.90
2023-12-09T07:10:34.362Z,2.90
2023-12-09T07:13:02.370Z,2.90
2023-12-09T07:15:30.407Z,2.90
2023-12-09T07:17:59.996Z,2.90
2023-12-09T07:20:28.054Z,2.90
2023-12-09T07:22:56.055Z,2.90
2023-12-09T07:25:24.809Z,2.90
2023-12-09T07:27:53.082Z,2.90
2023-12-09T07:30:22.114Z,3.00
2023-12-09T07:32:50.329Z,3.00
2023-12-09T07:35:20.998Z,3.00
2023-12-09T07:37:49.041Z,2.90
2023-12-09T07:40:17.273Z,3.00
2023-12-09T07:42:45.546Z,3.00
2023-12-09T07:45:14.017Z,3.00
2023-12-09T07:47:42.192Z,3.00
2023-12-09T07:50:12.366Z,3.00
2023-12-09T07:52:42.149Z,3.00
2023-12-09T07:55:10.460Z,3.00
2023-12-09T07:57:38.791Z,3.00
2023-12-09T08:00:09.225Z,3.10
2023-12-09T08:02:38.054Z,3.10
2023-12-09T08:05:07.540Z,3.10
2023-12-09T08:07:35.755Z,3.10
2023-12-09T08:10:05.850Z,3.10
2023-12-09T08:12:33.937Z,3.10
2023-12-09T08:15:02.043Z,3.10
2023-12-09T08:17:30.369Z,3.10
2023-12-09T08:19:58.562Z,3.10
2023-12-09T08:22:26.936Z,3.10
2023-12-09T08:24:55.173Z,3.20
2023-12-09T08:27:24.617Z,3.20
2023-12-09T08:29:52.663Z,3.20
2023-12-09T08:32:20.684Z,3.20
2023-12-09T08:34:57.201Z,3.20
2023-12-09T08:37:31.381Z,3.20
2023-12-09T08:40:07.041Z,3.20
2023-12-09T08:42:37.322Z,3.20
2023-12-09T08:45:06.219Z,3.20
2023-12-09T08:47:34.284Z,3.30
2023-12-09T08:50:02.396Z,3.30
2023-12-09T08:52:30.553Z,3.30
2023-12-09T08:55:01.899Z,3.30
2023-12-09T08:57:30.305Z,3.30
2023-12-09T08:59:59.911Z,3.30
2023-12-09T09:02:29.083Z,3.30
2023-12-09T09:04:57.277Z,3.30
2023-12-09T09:07:25.319Z,3.30
2023-12-09T09:09:53.312Z,3.30
2023-12-09T09:12:21.388Z,3.30
2023-12-09T09:14:49.541Z,3.30
2023-12-09T09:17:19.080Z,3.30
2023-12-09T09:19:47.211Z,3.30
2023-12-09T09:22:16.314Z,3.30
2023-12-09T09:24:44.789Z,3.30
2023-12-09T09:27:12.838Z,3.40
2023-12-09T09:29:41.453Z,3.40
2023-12-09T09:32:10.649Z,3.40
2023-12-09T09:34:40.128Z,3.50
2023-12-09T09:37:09.276Z,3.50
2023-12-09T09:39:37.863Z,3.50
2023-12-09T09:42:15.907Z,3.50
2023-12-09T09:44:49.978Z,3.60
2023-12-09T09:47:20.282Z,3.60
2023-12-09T09:49:53.548Z,3.60
2023-12-09T09:52:23.722Z,3.60
2023-12-09T09:54:52.522Z,3.70
2023-12-09T09:57:22.212Z,3.70
2023-12-09T09:59:50.973Z,3.70
2023-12-09T10:02:22.021Z,3.80
2023-12-09T10:04:51.524Z,3.80
2023-12-09T10:07:21.244Z,3.80
2023-12-09T10:09:49.631Z,3.90
2023-12-09T10:12:17.769Z,3.90
2023-12-09T10:14:48.257Z,3.90
2023-12-09T10:17:18.356Z,3.90
2023-12-09T10:19:46.742Z,3.90
2023-12-09T10:22:16.296Z,3.90
2023-12-09T10:24:50.821Z,4.00
2023-12-09T10:27:21.377Z,4.00
2023-12-09T10:29:50.840Z,4.00
2023-12-09T10:32:19.140Z,4.00
2023-12-09T10:34:47.343Z,4.10
2023-12-09T10:37:18.422Z,4.10
2023-12-09T10:39:47.312Z,4.10
2023-12-09T10:42:15.382Z,4.10
2023-12-09T10:44:44.028Z,4.10
2023-12-09T10:47:12.082Z,4.10
2023-12-09T10:49:40.281Z,4.10
2023-12-09T10:52:08.473Z,4.10
2023-12-09T10:54:38.303Z,4.20
2023-12-09T10:57:06.950Z,4.20
2023-12-09T10:59:35.839Z,4.20
2023-12-09T11:02:04.237Z,4.20
2023-12-09T11:04:33.802Z,4.20
2023-12-09T11:07:06.619Z,4.20
2023-12-09T11:09:35.021Z,4.20
2023-12-09T11:12:05.210Z,4.20
2023-12-09T11:14:33.787Z,4.30
2023-12-09T11:17:03.125Z,4.30
2023-12-09T11:19:32.007Z,4.20
2023-12-09T11:22:00.119Z,4.20
2023-12-09T11:24:32.588Z,4.30
2023-12-09T11:27:01.955Z,4.30
2023-12-09T11:29:31.414Z,4.40
2023-12-09T11:31:59.776Z,4.40
2023-12-09T11:34:27.883Z,4.50
2023-12-09T11:36:58.121Z,4.50
2023-12-09T11:39:27.573Z,4.50
2023-12-09T11:41:56.532Z,4.60
2023-12-09T11:44:25.246Z,4.60
2023-12-09T11:46:54.937Z,4.60
2023-12-09T11:49:24.408Z,4.70
2023-12-09T11:51:52.480Z,4.70
2023-12-09T11:54:21.837Z,4.70
2023-12-09T11:56:51.026Z,4.80
2023-12-09T11:59:19.109Z,4.80
2023-12-09T12:01:48.063Z,4.90
2023-12-09T12:04:18.284Z,5.00
2023-12-09T12:06:47.363Z,5.00
2023-12-09T12:09:15.538Z,5.10
2023-12-09T12:11:44.229Z,5.10
2023-12-09T12:14:12.456Z,5.10
2023-12-09T12:16:40.848Z,5.20
2023-12-09T12:19:09.019Z,5.20
2023-12-09T12:21:38.594Z,5.20
2023-12-09T12:24:07.157Z,5.20
2023-12-09T12:26:35.332Z,5.30
2023-12-09T12:29:05.304Z,5.20
2023-12-09T12:31:35.482Z,5.20
2023-12-09T12:34:16.486Z,5.20
2023-12-09T12:36:46.135Z,5.20
2023-12-09T12:39:14.647Z,5.20
2023-12-09T12:41:43.406Z,5.20
2023-12-09T12:44:13.182Z,5.10
2023-12-09T12:46:41.678Z,5.10
2023-12-09T12:49:10.021Z,5.10
2023-12-09T12:51:38.383Z,5.10
2023-12-09T12:54:07.996Z,5.10
2023-12-09T12:56:36.159Z,5.10
2023-12-09T12:59:05.686Z,5.10
2023-12-09T13:01:33.919Z,5.00
2023-12-09T13:04:02.303Z,5.00
2023-12-09T13:06:30.797Z,5.00
2023-12-09T13:08:59.426Z,4.90
2023-12-09T13:11:29.058Z,4.90
2023-12-09T13:13:57.226Z,4.90
2023-12-09T13:16:25.373Z,4.90
2023-12-09T13:18:53.638Z,4.80
2023-12-09T13:21:21.948Z,4.80
2023-12-09T13:23:50.239Z,4.70
2023-12-09T13:26:25.752Z,4.70
2023-12-09T13:28:55.270Z,4.70
2023-12-09T13:31:23.427Z,4.70
2023-12-09T13:33:51.697Z,4.60
2023-12-09T13:36:19.991Z,4.60
2023-12-09T13:38:48.248Z,4.60
2023-12-09T13:41:16.546Z,4.60
2023-12-09T13:43:44.693Z,4.60
2023-12-09T13:46:14.775Z,4.60
2023-12-09T13:48:43.055Z,4.50
2023-12-09T13:51:11.502Z,4.60
2023-12-09T13:53:39.782Z,4.50
2023-12-09T13:56:08.639Z,4.50
2023-12-09T13:58:37.747Z,4.50
2023-12-09T14:01:06.601Z,4.50
2023-12-09T14:03:36.281Z,4.50
2023-12-09T14:06:04.680Z,4.40
2023-12-09T14:08:34.936Z,4.40
2023-12-09T14:11:03.316Z,4.40
2023-12-09T14:13:31.511Z,4.40
2023-12-09T14:15:59.761Z,4.40
2023-12-09T14:18:28.141Z,4.40
2023-12-09T14:20:57.920Z,4.40
2023-12-09T14:23:29.036Z,4.40
2023-12-09T14:25:57.199Z,4.30
2023-12-09T14:28:25.456Z,4.30
2023-12-09T14:30:53.750Z,4.30
2023-12-09T14:33:22.260Z,4.30
2023-12-09T14:35:51.034Z,4.30
2023-12-09T14:38:21.270Z,4.30
2023-12-09T14:40:49.885Z,4.30
2023-12-09T14:43:18.274Z,4.30
2023-12-09T14:45:46.880Z,4.30
2023-12-09T14:48:18.183Z,4.20
2023-12-09T14:50:46.485Z,4.20
2023-12-09T14:53:15.399Z,4.20
2023-12-09T14:55:45.716Z,4.20
2023-12-09T14:58:13.906Z,4.20
2023-12-09T15:00:42.288Z,4.10
2023-12-09T15:03:10.540Z,4.20
2023-12-09T15:05:38.803Z,4.10
2023-12-09T15:08:07.215Z,4.10
2023-12-09T15:10:35.436Z,4.10
2023-12-09T15:13:04.988Z,4.20
2023-12-09T15:15:33.730Z,4.10
2023-12-09T15:18:02.182Z,4.10
2023-12-09T15:20:30.469Z,4.10
2023-12-09T15:22:59.529Z,4.10
2023-12-09T15:25:27.838Z,4.10
2023-12-09T15:27:56.006Z,4.10
2023-12-09T15:30:25.703Z,4.20
2023-12-09T15:32:53.867Z,4.10
2023-12-09T15:35:22.073Z,4.10
2023-12-09T15:37:50.544Z,4.10
2023-12-09T15:40:18.831Z,4.20
2023-12-09T15:42:47.003Z,4.20
2023-12-09T15:45:15.395Z,4.10
2023-12-09T15:47:44.996Z,4.10
2023-12-09T15:50:13.377Z,4.10
2023-12-09T15:52:43.474Z,4.20
2023-12-09T15:55:11.964Z,4.20
2023-12-09T15:57:40.553Z,4.20
2023-12-09T16:00:10.461Z,4.20
2023-12-09T16:05:09.602Z,4.20
2023-12-09T16:07:40.934Z,4.20
2023-12-09T16:10:10.083Z,4.20
2023-12-09T16:12:40.637Z,4.20
2023-12-09T16:15:09.591Z,4.20
2023-12-09T16:17:37.792Z,4.20
2023-12-09T16:20:07.369Z,4.20
2023-12-09T16:22:37.192Z,4.20
2023-12-09T16:25:05.976Z,4.20
2023-12-09T16:27:35.633Z,4.30
2023-12-09T16:30:04.113Z,4.20
2023-12-09T16:32:32.786Z,4.20
2023-12-09T16:35:01.051Z,4.30
2023-12-09T16:37:29.819Z,4.20
2023-12-09T16:39:59.470Z,4.20
2023-12-09T16:42:27.927Z,4.30
2023-12-09T16:44:56.370Z,4.20
2023-12-09T16:47:24.571Z,4.20
2023-12-09T16:49:52.799Z,4.30
2023-12-09T16:52:20.990Z,4.30
2023-12-09T16:54:49.141Z,4.30
2023-12-09T16:57:19.327Z,4.30
2023-12-09T16:59:47.502Z,4.30
2023-12-09T17:02:15.723Z,4.40
2023-12-09T17:04:44.402Z,4.40
2023-12-09T17:07:12.664Z,4.40
2023-12-09T17:09:40.781Z,4.40
2023-12-09T17:12:10.140Z,4.40
2023-12-09T17:14:39.788Z,4.40
2023-12-09T17:17:08.491Z,4.40
2023-12-09T17:19:36.871Z,4.40
2023-12-09T17:22:05.962Z,4.40
2023-12-09T17:24:34.153Z,4.30
2023-12-09T17:27:02.338Z,4.40
2023-12-09T17:29:30.459Z,4.40
2023-12-09T17:31:59.989Z,4.40
2023-12-09T17:34:28.679Z,4.40
2023-12-09T17:36:56.891Z,4.40
2023-12-09T17:39:25.081Z,4.40
2023-12-09T17:41:53.229Z,4.40
2023-12-09T17:44:21.361Z,4.40
2023-12-09T17:46:49.587Z,4.50
2023-12-09T17:49:19.626Z,4.40
2023-12-09T17:51:46.902Z,4.50
2023-12-09T17:54:15.189Z,4.40
2023-12-09T17:56:43.411Z,4.50
2023-12-09T17:59:11.541Z,4.50
2023-12-09T18:01:39.674Z,4.50
2023-12-09T18:04:07.938Z,4.50
2023-12-09T18:06:37.647Z,4.50
2023-12-09T18:09:06.865Z,4.50
2023-12-09T18:11:35.092Z,4.50
2023-12-09T18:14:03.790Z,4.50
2023-12-09T18:16:32.099Z,4.60
2023-12-09T18:19:00.456Z,4.60
2023-12-09T18:21:29.768Z,4.60
2023-12-09T18:23:59.468Z,4.50
2023-12-09T18:26:27.775Z,4.60
2023-12-09T18:28:56.062Z,4.60
2023-12-09T18:31:24.241Z,4.60
2023-12-09T18:33:52.505Z,4.60
2023-12-09T18:36:21.400Z,4.60
2023-12-09T18:38:50.588Z,4.60
2023-12-09T18:41:20.334Z,4.60
2023-12-09T18:43:49.889Z,4.70
2023-12-09T18:46:18.386Z,4.60
2023-12-09T18:48:46.783Z,4.60
2023-12-09T18:51:15.095Z,4.60
2023-12-09T18:53:43.303Z,4.60
2023-12-09T18:56:12.179Z,4.60
2023-12-09T18:58:41.897Z,4.60
2023-12-09T19:01:12.003Z,4.60
2023-12-09T19:03:40.455Z,4.60
2023-12-09T19:06:10.328Z,4.60
2023-12-09T19:08:39.434Z,4.60
2023-12-09T19:11:09.601Z,4.60
2023-12-09T19:13:38.031Z,4.60
2023-12-09T19:16:08.955Z,4.60
2023-12-09T19:18:37.360Z,4.50
2023-12-09T19:21:05.931Z,4.50
2023-12-09T19:23:34.803Z,4.50
2023-12-09T19:26:04.737Z,4.50
2023-12-09T19:28:45.483Z,4.50
2023-12-09T19:31:45.889Z,4.50
2023-12-09T19:34:14.563Z,4.50
2023-12-09T19:36:44.960Z,4.50
2023-12-09T19:39:14.237Z,4.50
2023-12-09T19:41:42.396Z,4.60
2023-12-09T19:44:10.529Z,4.50
2023-12-09T19:46:40.027Z,4.50
2023-12-09T19:49:08.195Z,4.50
2023-12-09T19:51:36.416Z,4.50
2023-12-09T19:54:04.609Z,4.50
2023-12-09T19:56:32.722Z,4.50
2023-12-09T19:59:00.848Z,4.50
2023-12-09T20:01:28.993Z,4.50
2023-12-09T20:03:58.580Z,4.50
2023-12-09T20:06:28.723Z,4.60
2023-12-09T20:08:57.494Z,4.60
2023-12-09T20:11:25.956Z,4.50
2023-12-09T20:13:55.726Z,4.60
2023-12-09T20:16:24.294Z,4.50
2023-12-09T20:18:52.474Z,4.60
2023-12-09T20:21:22.113Z,4.60
2023-12-09T20:23:50.259Z,4.50
2023-12-09T20:26:18.418Z,4.60
2023-12-09T20:28:46.546Z,4.50
2023-12-09T20:31:14.872Z,4.60
2023-12-09T20:33:43.193Z,4.60
2023-12-09T20:36:11.672Z,4.60
2023-12-09T20:38:41.223Z,4.60
2023-12-09T20:41:09.288Z,4.60
2023-12-09T20:43:37.884Z,4.60
2023-12-09T20:46:06.487Z,4.60
2023-12-09T20:48:34.770Z,4.60
2023-12-09T20:51:03.447Z,4.60
2023-12-09T20:53:31.567Z,4.60
2023-12-09T20:56:01.040Z,4.70
2023-12-09T20:58:29.155Z,4.70
2023-12-09T21:00:57.369Z,4.70
2023-12-09T21:03:25.621Z,4.70
2023-12-09T21:05:53.805Z,4.70
2023-12-09T21:08:21.918Z,4.70
2023-12-09T21:10:50.033Z,4.70
2023-12-09T21:13:19.570Z,4.80
2023-12-09T21:15:48.117Z,4.70
2023-12-09T21:18:16.607Z,4.80
2023-12-09T21:20:44.963Z,4.80
2023-12-09T21:23:13.091Z,4.80
2023-12-09T21:25:41.236Z,4.80
2023-12-09T21:28:09.140Z,4.80
2023-12-09T21:30:38.887Z,4.80
2023-12-09T21:33:07.762Z,4.80
2023-12-09T21:35:36.013Z,4.80
2023-12-09T21:38:04.117Z,4.80
2023-12-09T21:40:32.234Z,4.80
2023-12-09T21:43:00.402Z,4.90
2023-12-09T21:45:28.591Z,4.80
2023-12-09T21:47:58.239Z,4.80
2023-12-09T21:50:26.493Z,4.80
2023-12-09T21:52:54.605Z,4.90
2023-12-09T21:55:22.707Z,4.90
2023-12-09T21:57:50.876Z,4.80
2023-12-09T22:00:19.745Z,4.90
2023-12-09T22:02:48.276Z,4.80
2023-12-09T22:05:18.190Z,4.90
2023-12-09T22:07:46.324Z,4.90
2023-12-09T22:10:14.551Z,4.90
2023-12-09T22:12:42.835Z,4.80
2023-12-09T22:15:11.692Z,4.80
2023-12-09T22:17:40.495Z,4.90
2023-12-09T22:20:10.137Z,4.90
2023-12-09T22:22:48.662Z,4.90
2023-12-09T22:25:22.314Z,4.80
2023-12-09T22:27:50.482Z,4.90
2023-12-09T22:30:19.166Z,4.90
2023-12-09T22:32:47.356Z,4.80
2023-12-09T22:35:15.756Z,4.80
2023-12-09T22:37:45.325Z,4.80
2023-12-09T22:40:14.708Z,4.80
2023-12-09T22:42:43.489Z,4.90
2023-12-09T22:45:12.649Z,4.80
2023-12-09T22:47:40.940Z,4.80
2023-12-09T22:50:10.916Z,4.80
2023-12-09T22:52:39.474Z,4.80
2023-12-09T22:55:10.052Z,4.80
2023-12-09T22:57:38.175Z,4.90
2023-12-09T23:00:10.933Z,4.80
2023-12-09T23:02:39.671Z,4.90
2023-12-09T23:05:08.613Z,4.80
2023-12-09T23:07:36.734Z,4.80
2023-12-09T23:10:05.767Z,4.80
2023-12-09T23:12:35.479Z,4.80
2023-12-09T23:15:03.738Z,4.80
2023-12-09T23:17:32.058Z,4.80
2023-12-09T23:20:00.317Z,4.80
2023-12-09T23:22:28.726Z,4.80
2023-12-09T23:24:57.080Z,4.80
2023-12-09T23:27:25.231Z,4.80
2023-12-09T23:29:54.781Z,4.80
2023-12-09T23:32:22.894Z,4.70
2023-12-09T23:34:51.155Z,4.80
2023-12-09T23:37:19.766Z,4.80
2023-12-09T23:39:47.867Z,4.80
2023-12-09T23:42:16.051Z,4.80
2023-12-09T23:44:44.642Z,4.70
2023-12-09T23:47:14.188Z,4.70
2023-12-09T23:49:42.305Z,4.70
2023-12-09T23:52:10.693Z,4.70
2023-12-09T23:54:39.184Z,4.70
2023-12-09T23:57:07.385Z,4.70
2023-12-09T23:59:35.788Z,4.70
